Terminal Aerodrome Forecast
Issued by NWS Binghamton, NY

Home | Current Version | Previous Version | Text Only | Print | Product List | Glossary On
Versions: 1 2 3 4 5 6 7 8 9 10 11 12 13 14 15 16 17 18
838
FTUS41 KBGM 272335
TAFSYR
TAF
KSYR 272335Z 2800/2824 10004KT P6SM SCT120 BKN250
     FM281300 20007KT P6SM SCT050 BKN120
     FM281800 24008KT P6SM BKN050 PROB30 2818/2822 4SM TSRA BR
      OVC025CB=

USA.gov is the U.S. government's official web portal to all federal, state and local government web resources and services.